Houston, Texas
Traffic Map
Current Weather Conditions
Houston, Texas
Clear
Clear
75°
Feels Like: 75°
Wind Chill: 75° Ceiling: Unl
Heat Index: 75° Visibility: 10mi
Dew Point: 52° Wind: 0mph
Humidity: 44% Direction: ° ()
Pressure: 30.1in Gusts: 0mph
Raw Report DataKMCJ 231755Z AUTO 00000KT 10SM CLR 24/11 A3010 RMK AO1
Traffic Incident Summary
Active as of:
Severity:
Category:
InformationThere was an issue retrieving the traffic information for this location. Please try a different location or try again shortly.
Advertisements
Track Severe Weather on mobile